Time;durP1;ratioP1;P1;durP2;ratioP2;P2;SDS_P1;SDS_P2;PMS_P1;PMS_P2;Temp;Humidity;BMP_temperature;BMP_pressure;BME280_temperature;BME280_humidity;BME280_pressure;Samples;Min_cycle;Max_cycle;Signal;HPM_P1;HPM_P2
2022/08/12 04:43:09;;;;;;;0.30;0.30;;;;;;;;;;7390154;19;20202;-69
2022/08/12 04:45:36;;;;;;;0.37;0.37;;;;;;;;;;7388450;19;20454;-69
2022/08/12 04:48:02;;;;;;;0.30;0.30;;;;;;;;;;7391599;19;20164;-68
2022/08/12 04:50:27;;;;;;;0.30;0.30;;;;;;;;;;7389291;19;20488;-68
2022/08/12 04:52:54;;;;;;;0.30;0.30;;;;;;;;;;7389091;19;20153;-68
2022/08/12 04:55:21;;;;;;;0.40;0.40;;;;;;;;;;7387817;19;20148;-68
2022/08/12 04:57:47;;;;;;;0.40;0.40;;;;;;;;;;7390041;19;20564;-68
2022/08/12 05:00:15;;;;;;;0.60;0.60;;;;;;;;;;7386112;19;20148;-68
2022/08/12 05:02:41;;;;;;;0.63;0.63;;;;;;;;;;7389602;19;20149;-68
2022/08/12 05:05:09;;;;;;;0.30;0.30;;;;;;;;;;7388874;19;20192;-69
2022/08/12 05:07:35;;;;;;;0.47;0.47;;;;;;;;;;7381719;19;20124;-68
2022/08/12 05:10:01;;;;;;;0.67;0.67;;;;;;;;;;7389991;19;20133;-68
2022/08/12 05:12:38;;;;;;;0.30;0.30;;;;;;;;;;7387702;19;20163;-68
2022/08/12 05:15:05;;;;;;;0.30;0.30;;;;;;;;;;7389125;19;20147;-68
2022/08/12 05:17:30;;;;;;;0.30;0.30;;;;;;;;;;7382001;19;20159;-68
2022/08/12 05:19:56;;;;;;;0.30;0.30;;;;;;;;;;7387729;19;20141;-69
2022/08/12 05:22:21;;;;;;;0.40;0.40;;;;;;;;;;7387219;19;20630;-69
2022/08/12 05:24:47;;;;;;;0.30;0.30;;;;;;;;;;7384579;19;20495;-69
2022/08/12 05:27:13;;;;;;;0.40;0.40;;;;;;;;;;7387613;19;20129;-68
2022/08/12 05:29:39;;;;;;;0.30;0.30;;;;;;;;;;7388829;19;20133;-69
2022/08/12 05:32:06;;;;;;;0.20;0.20;;;;;;;;;;7387028;19;20145;-69
2022/08/12 05:34:33;;;;;;;1.38;0.70;;;;;;;;;;7378422;19;20536;-69
2022/08/12 05:36:59;;;;;;;0.60;0.60;;;;;;;;;;7382101;19;20124;-69
2022/08/12 05:39:25;;;;;;;0.40;0.40;;;;;;;;;;7385087;19;20158;-68
2022/08/12 05:41:50;;;;;;;0.30;0.30;;;;;;;;;;7385796;19;20606;-69
2022/08/12 05:44:16;;;;;;;0.30;0.30;;;;;;;;;;7385095;19;20512;-69
2022/08/12 05:46:41;;;;;;;0.30;0.30;;;;;;;;;;7387925;19;20133;-69
2022/08/12 05:49:07;;;;;;;0.30;0.30;;;;;;;;;;7385041;19;20116;-69
2022/08/12 05:51:34;;;;;;;0.30;0.30;;;;;;;;;;7386202;19;20148;-69
2022/08/12 05:54:00;;;;;;;0.40;0.40;;;;;;;;;;7388574;19;20121;-68
2022/08/12 05:56:27;;;;;;;0.50;0.50;;;;;;;;;;7388911;19;20145;-69
2022/08/12 05:58:54;;;;;;;0.30;0.30;;;;;;;;;;7387220;19;20132;-70
2022/08/12 06:01:21;;;;;;;0.30;0.30;;;;;;;;;;7386215;19;20144;-69
2022/08/12 06:03:46;;;;;;;0.30;0.30;;;;;;;;;;7386333;19;20622;-69
2022/08/12 06:06:15;;;;;;;0.60;0.60;;;;;;;;;;7383836;19;20123;-69
2022/08/12 06:08:43;;;;;;;0.30;0.30;;;;;;;;;;7385096;19;20140;-69
2022/08/12 06:11:09;;;;;;;0.25;0.25;;;;;;;;;;7386927;19;20177;-69
2022/08/12 06:13:37;;;;;;;0.30;0.30;;;;;;;;;;7383176;19;20153;-70
2022/08/12 06:16:03;;;;;;;0.30;0.30;;;;;;;;;;7386505;19;20129;-69
2022/08/12 06:18:30;;;;;;;0.30;0.30;;;;;;;;;;7386821;19;20148;-69
2022/08/12 06:20:57;;;;;;;0.47;0.47;;;;;;;;;;7385814;19;20472;-69
2022/08/12 06:23:27;;;;;;;0.30;0.30;;;;;;;;;;7387826;19;20153;-69
2022/08/12 06:25:53;;;;;;;1.25;1.15;;;;;;;;;;7387019;19;20124;-69
2022/08/12 06:28:19;;;;;;;0.40;0.40;;;;;;;;;;7387162;19;20124;-70
2022/08/12 06:30:45;;;;;;;1.08;0.73;;;;;;;;;;7385647;19;20594;-69
2022/08/12 06:33:12;;;;;;;0.40;0.40;;;;;;;;;;7385955;19;20176;-70
2022/08/12 06:35:39;;;;;;;0.30;0.30;;;;;;;;;;7385138;19;20479;-69
2022/08/12 06:38:14;;;;;;;0.30;0.30;;;;;;;;;;7388351;19;20125;-69
2022/08/12 06:43:23;;;;;;;0.38;0.38;;;;;;;;;;7386073;19;20512;-69
2022/08/12 06:45:49;;;;;;;0.30;0.30;;;;;;;;;;7385193;19;20125;-70
2022/08/12 06:48:15;;;;;;;1.10;0.93;;;;;;;;;;7386552;19;20137;-69
2022/08/12 06:50:41;;;;;;;0.50;0.50;;;;;;;;;;7388761;19;20587;-69
2022/08/12 06:53:08;;;;;;;0.30;0.30;;;;;;;;;;7384508;19;20197;-70
2022/08/12 06:55:35;;;;;;;0.30;0.30;;;;;;;;;;7386286;19;20117;-70
2022/08/12 06:58:02;;;;;;;0.30;0.30;;;;;;;;;;7386544;19;20129;-70
2022/08/12 07:00:30;;;;;;;0.30;0.30;;;;;;;;;;7383909;19;20627;-70
2022/08/12 07:02:56;;;;;;;0.30;0.30;;;;;;;;;;7382656;19;20167;-69
2022/08/12 07:05:25;;;;;;;0.30;0.30;;;;;;;;;;7378156;19;20129;-70
2022/08/12 07:07:54;;;;;;;0.30;0.30;;;;;;;;;;7384268;19;20133;-69
2022/08/12 07:10:24;;;;;;;0.30;0.30;;;;;;;;;;7387268;19;20139;-70
2022/08/12 07:12:53;;;;;;;0.30;0.30;;;;;;;;;;7385365;19;20153;-69
2022/08/12 07:15:23;;;;;;;0.30;0.30;;;;;;;;;;7385405;19;20121;-69
2022/08/12 07:17:50;;;;;;;0.38;0.38;;;;;;;;;;7386243;19;20130;-70
2022/08/12 07:20:16;;;;;;;0.30;0.30;;;;;;;;;;7383302;19;20474;-70
2022/08/12 07:22:41;;;;;;;0.25;0.25;;;;;;;;;;7386146;19;20153;-69
2022/08/12 07:27:54;;;;;;;0.40;0.40;;;;;;;;;;7387613;19;20170;-69
2022/08/12 07:30:21;;;;;;;0.30;0.30;;;;;;;;;;7389654;19;20124;-69
2022/08/12 07:32:50;;;;;;;0.32;0.32;;;;;;;;;;7391850;19;20156;-70
2022/08/12 07:35:16;;;;;;;0.55;0.55;;;;;;;;;;7386025;19;20121;-69
2022/08/12 07:37:43;;;;;;;0.50;0.50;;;;;;;;;;7390208;19;20137;-69
2022/08/12 07:40:10;;;;;;;0.30;0.30;;;;;;;;;;7389378;19;20471;-69
2022/08/12 07:42:36;;;;;;;0.77;0.77;;;;;;;;;;7390867;19;20148;-69
2022/08/12 07:45:03;;;;;;;0.45;0.45;;;;;;;;;;7387605;19;20128;-69
2022/08/12 07:47:29;;;;;;;0.30;0.30;;;;;;;;;;7391660;19;20453;-69
2022/08/12 07:49:55;;;;;;;0.55;0.55;;;;;;;;;;7392477;19;20140;-69
2022/08/12 07:52:21;;;;;;;0.30;0.30;;;;;;;;;;7391515;19;20141;-69
2022/08/12 07:54:46;;;;;;;0.57;0.57;;;;;;;;;;7386713;19;20145;-69
2022/08/12 07:57:13;;;;;;;0.50;0.50;;;;;;;;;;7392073;19;20138;-69
2022/08/12 07:59:38;;;;;;;0.20;0.20;;;;;;;;;;7384667;19;20129;-70
2022/08/12 08:02:05;;;;;;;0.30;0.30;;;;;;;;;;7390845;19;20157;-70
2022/08/12 08:07:15;;;;;;;0.30;0.30;;;;;;;;;;7391900;19;20594;-69
2022/08/12 08:09:41;;;;;;;0.57;0.57;;;;;;;;;;7394111;19;20128;-69
2022/08/12 08:14:54;;;;;;;0.30;0.30;;;;;;;;;;7377358;19;20142;-70
2022/08/12 08:17:20;;;;;;;0.40;0.40;;;;;;;;;;7388401;19;20152;-69
2022/08/12 08:19:51;;;;;;;0.30;0.30;;;;;;;;;;7390743;19;20129;-69
2022/08/12 08:22:23;;;;;;;0.22;0.22;;;;;;;;;;7389496;19;20166;-69
2022/08/12 08:24:56;;;;;;;0.30;0.30;;;;;;;;;;7390560;19;20121;-70
2022/08/12 08:27:23;;;;;;;0.85;0.85;;;;;;;;;;7389738;19;20139;-69
2022/08/12 08:29:48;;;;;;;0.30;0.30;;;;;;;;;;7391074;19;20469;-69
2022/08/12 08:32:14;;;;;;;0.40;0.40;;;;;;;;;;7389127;19;20329;-70
2022/08/12 08:34:40;;;;;;;0.30;0.30;;;;;;;;;;7388691;19;20482;-70
2022/08/12 08:37:06;;;;;;;0.70;0.70;;;;;;;;;;7389400;19;20563;-69
2022/08/12 08:39:32;;;;;;;0.40;0.40;;;;;;;;;;7388132;19;20125;-69
2022/08/12 08:44:42;;;;;;;0.65;0.65;;;;;;;;;;7392239;19;20136;-69
2022/08/12 08:47:10;;;;;;;0.50;0.50;;;;;;;;;;7389790;19;20129;-70
2022/08/12 08:49:36;;;;;;;0.40;0.40;;;;;;;;;;7392028;19;20634;-69
2022/08/12 08:52:03;;;;;;;0.30;0.30;;;;;;;;;;7389455;19;20653;-70
2022/08/12 08:54:32;;;;;;;0.75;0.73;;;;;;;;;;7388895;19;20153;-69
2022/08/12 08:57:01;;;;;;;0.50;0.50;;;;;;;;;;7392058;19;20129;-70
2022/08/12 08:59:27;;;;;;;0.57;0.57;;;;;;;;;;7387306;19;20132;-70
2022/08/12 09:01:53;;;;;;;0.40;0.40;;;;;;;;;;7389974;19;20564;-69
2022/08/12 09:04:19;;;;;;;0.38;0.38;;;;;;;;;;7389149;19;20188;-69
2022/08/12 09:06:46;;;;;;;0.57;0.57;;;;;;;;;;7388588;19;20120;-69
2022/08/12 09:09:13;;;;;;;0.63;0.63;;;;;;;;;;7388295;19;20133;-69
2022/08/12 09:14:22;;;;;;;0.40;0.40;;;;;;;;;;7387930;19;20148;-69
2022/08/12 09:16:49;;;;;;;0.32;0.32;;;;;;;;;;7389562;19;20125;-69
2022/08/12 09:19:16;;;;;;;0.30;0.30;;;;;;;;;;7386244;19;20200;-69
2022/08/12 09:21:42;;;;;;;0.32;0.32;;;;;;;;;;7389809;19;20162;-69
2022/08/12 09:24:07;;;;;;;0.40;0.40;;;;;;;;;;7386916;19;20137;-70
2022/08/12 09:26:34;;;;;;;0.30;0.30;;;;;;;;;;7390488;19;20129;-71
2022/08/12 09:28:59;;;;;;;0.30;0.30;;;;;;;;;;7387492;19;20144;-70
2022/08/12 09:31:25;;;;;;;0.40;0.40;;;;;;;;;;7387967;19;20125;-70
2022/08/12 09:33:50;;;;;;;0.40;0.40;;;;;;;;;;7388758;19;20157;-70
2022/08/12 09:36:17;;;;;;;0.40;0.40;;;;;;;;;;7388709;19;20125;-70
2022/08/12 09:38:43;;;;;;;0.50;0.50;;;;;;;;;;7387349;19;20148;-70
2022/08/12 09:41:09;;;;;;;0.55;0.55;;;;;;;;;;7387959;19;20129;-70
2022/08/12 09:46:18;;;;;;;0.40;0.40;;;;;;;;;;7390413;19;20206;-70
2022/08/12 09:48:43;;;;;;;0.40;0.40;;;;;;;;;;7385525;19;20145;-70
2022/08/12 09:51:10;;;;;;;0.40;0.40;;;;;;;;;;7386256;19;20116;-69
2022/08/12 09:53:35;;;;;;;0.32;0.32;;;;;;;;;;7384431;19;20205;-70
2022/08/12 09:56:01;;;;;;;0.35;0.35;;;;;;;;;;7381104;19;20129;-70
2022/08/12 09:58:30;;;;;;;0.40;0.40;;;;;;;;;;7384069;19;20180;-70
2022/08/12 10:01:00;;;;;;;0.40;0.40;;;;;;;;;;7386659;19;20125;-70
2022/08/12 10:03:28;;;;;;;0.30;0.30;;;;;;;;;;7386656;19;20481;-70
2022/08/12 10:05:54;;;;;;;0.38;0.38;;;;;;;;;;7386356;19;20141;-70
2022/08/12 10:08:21;;;;;;;0.30;0.30;;;;;;;;;;7384942;19;20630;-70
2022/08/12 10:13:42;;;;;;;0.60;0.60;;;;;;;;;;7379720;19;20548;-70
2022/08/12 10:16:18;;;;;;;0.30;0.30;;;;;;;;;;7386675;19;20124;-70
2022/08/12 10:18:49;;;;;;;0.40;0.40;;;;;;;;;;7388874;19;20201;-70
2022/08/12 10:21:19;;;;;;;0.40;0.40;;;;;;;;;;7383628;19;20124;-70
2022/08/12 10:23:46;;;;;;;0.50;0.50;;;;;;;;;;7382758;19;20507;-70
2022/08/12 10:31:44;;;;;;;0.73;0.73;;;;;;;;;;7389691;19;20160;-70
2022/08/12 10:34:12;;;;;;;0.38;0.38;;;;;;;;;;7387088;19;20156;-70
2022/08/12 10:36:38;;;;;;;0.50;0.50;;;;;;;;;;7379636;19;20604;-70
2022/08/12 10:39:07;;;;;;;0.30;0.30;;;;;;;;;;7384438;19;20606;-70
2022/08/12 10:44:17;;;;;;;0.40;0.40;;;;;;;;;;7389492;19;20171;-70
2022/08/12 10:46:44;;;;;;;0.40;0.40;;;;;;;;;;7386504;19;20631;-70
2022/08/12 10:49:11;;;;;;;0.30;0.30;;;;;;;;;;7388045;19;20124;-71
2022/08/12 10:51:37;;;;;;;0.57;0.57;;;;;;;;;;7386937;19;20209;-70
2022/08/12 10:54:02;;;;;;;3.83;0.63;;;;;;;;;;7385455;19;20184;-70
2022/08/12 10:56:31;;;;;;;0.40;0.40;;;;;;;;;;7386568;19;20125;-71
2022/08/12 10:58:56;;;;;;;0.57;0.57;;;;;;;;;;7388643;19;20117;-71
2022/08/12 11:01:22;;;;;;;0.43;0.40;;;;;;;;;;7394081;19;20167;-70
2022/08/12 11:03:48;;;;;;;0.45;0.45;;;;;;;;;;7394467;19;20148;-70
2022/08/12 11:06:14;;;;;;;0.30;0.30;;;;;;;;;;7393875;19;20488;-72
2022/08/12 11:08:40;;;;;;;0.40;0.40;;;;;;;;;;7395353;19;20121;-70
2022/08/12 11:11:07;;;;;;;0.40;0.40;;;;;;;;;;7395191;19;20125;-72
2022/08/12 11:13:36;;;;;;;0.63;0.63;;;;;;;;;;7391314;19;20288;-70
2022/08/12 11:16:04;;;;;;;0.32;0.32;;;;;;;;;;7394369;19;20215;-70
2022/08/12 11:18:29;;;;;;;0.47;0.47;;;;;;;;;;7395067;19;20133;-70
2022/08/12 11:20:55;;;;;;;0.57;0.57;;;;;;;;;;7393532;19;20156;-70
2022/08/12 11:23:20;;;;;;;0.50;0.50;;;;;;;;;;7392935;19;20577;-70
2022/08/12 11:25:46;;;;;;;0.35;0.35;;;;;;;;;;7392734;19;20133;-70
2022/08/12 11:28:13;;;;;;;0.30;0.30;;;;;;;;;;7394629;19;20159;-71
2022/08/12 11:30:38;;;;;;;0.30;0.30;;;;;;;;;;7393496;19;20181;-71
2022/08/12 11:33:03;;;;;;;0.30;0.30;;;;;;;;;;7392020;19;20168;-71
2022/08/12 11:35:29;;;;;;;0.38;0.38;;;;;;;;;;7391980;19;20129;-71
2022/08/12 11:37:54;;;;;;;0.60;0.60;;;;;;;;;;7395590;19;20113;-71
2022/08/12 11:40:19;;;;;;;0.40;0.40;;;;;;;;;;7391570;19;20132;-71
2022/08/12 11:42:45;;;;;;;0.60;0.60;;;;;;;;;;7390832;19;20189;-72
2022/08/12 11:45:10;;;;;;;0.40;0.40;;;;;;;;;;7393312;19;20132;-71
2022/08/12 11:47:36;;;;;;;2.58;0.85;;;;;;;;;;7394710;19;20121;-71
2022/08/12 11:50:02;;;;;;;0.40;0.40;;;;;;;;;;7393623;19;20132;-71
2022/08/12 11:52:27;;;;;;;0.47;0.47;;;;;;;;;;7390698;19;20168;-71
2022/08/12 11:54:53;;;;;;;0.40;0.40;;;;;;;;;;7391313;19;20152;-71
2022/08/12 11:57:18;;;;;;;0.40;0.40;;;;;;;;;;7393679;19;20117;-71
2022/08/12 11:59:43;;;;;;;0.50;0.50;;;;;;;;;;7390972;19;20877;-71
2022/08/12 12:02:09;;;;;;;0.50;0.50;;;;;;;;;;7391064;19;20180;-73
2022/08/12 12:04:34;;;;;;;0.47;0.47;;;;;;;;;;7393761;19;20125;-71
2022/08/12 12:06:59;;;;;;;0.50;0.50;;;;;;;;;;7392159;19;20546;-71
2022/08/12 12:09:25;;;;;;;0.85;0.70;;;;;;;;;;7394006;19;20116;-71
2022/08/12 12:11:51;;;;;;;0.80;0.80;;;;;;;;;;7389304;19;20601;-71
2022/08/12 12:14:16;;;;;;;0.60;0.60;;;;;;;;;;7390380;19;20686;-72
2022/08/12 12:16:41;;;;;;;0.60;0.60;;;;;;;;;;7392349;19;20483;-71
2022/08/12 12:19:10;;;;;;;0.52;0.52;;;;;;;;;;7390581;19;20581;-71
2022/08/12 12:21:35;;;;;;;1.10;0.60;;;;;;;;;;7391616;19;20480;-71
2022/08/12 12:24:01;;;;;;;0.50;0.50;;;;;;;;;;7389942;19;20140;-71
2022/08/12 12:26:26;;;;;;;0.57;0.57;;;;;;;;;;7390382;19;20196;-72
2022/08/12 12:28:51;;;;;;;0.60;0.60;;;;;;;;;;7391754;19;20120;-71
2022/08/12 12:31:17;;;;;;;0.70;0.70;;;;;;;;;;7393243;19;20510;-72
2022/08/12 12:33:42;;;;;;;0.95;0.80;;;;;;;;;;7388417;19;20179;-73
2022/08/12 12:36:07;;;;;;;0.60;0.60;;;;;;;;;;7392171;19;20117;-72
2022/08/12 12:38:33;;;;;;;0.60;0.60;;;;;;;;;;7385832;19;20139;-72
2022/08/12 12:40:58;;;;;;;0.60;0.60;;;;;;;;;;7388292;19;20121;-71
2022/08/12 12:43:23;;;;;;;0.60;0.60;;;;;;;;;;7388413;19;20182;-72
2022/08/12 12:45:49;;;;;;;0.95;0.95;;;;;;;;;;7380878;19;20166;-71
2022/08/12 12:48:19;;;;;;;0.60;0.60;;;;;;;;;;7388972;19;20594;-71
2022/08/12 12:53:32;;;;;;;0.60;0.60;;;;;;;;;;7387561;19;20157;-72
2022/08/12 12:55:58;;;;;;;0.70;0.70;;;;;;;;;;7386489;19;20140;-71
2022/08/12 12:58:23;;;;;;;0.52;0.52;;;;;;;;;;7390041;19;20594;-71
2022/08/12 13:00:49;;;;;;;0.55;0.55;;;;;;;;;;7386765;19;20132;-71
2022/08/12 13:03:17;;;;;;;0.50;0.50;;;;;;;;;;7386050;19;20258;-71
2022/08/12 13:05:43;;;;;;;0.70;0.70;;;;;;;;;;7376322;19;20199;-72
2022/08/12 13:08:29;;;;;;;0.60;0.60;;;;;;;;;;7388434;19;20129;-72
2022/08/12 13:10:59;;;;;;;0.50;0.50;;;;;;;;;;7391938;19;20121;-71
2022/08/12 13:13:26;;;;;;;0.60;0.60;;;;;;;;;;7386835;19;20152;-71
2022/08/12 13:15:52;;;;;;;0.52;0.52;;;;;;;;;;7384243;19;20129;-72
2022/08/12 13:18:18;;;;;;;0.85;0.85;;;;;;;;;;7390462;19;20151;-71
2022/08/12 13:20:44;;;;;;;0.60;0.60;;;;;;;;;;7380091;19;20602;-70
2022/08/12 13:23:11;;;;;;;0.50;0.50;;;;;;;;;;7380384;19;20509;-70
2022/08/12 13:25:36;;;;;;;0.80;0.80;;;;;;;;;;7386987;19;20136;-72
2022/08/12 13:28:02;;;;;;;0.60;0.60;;;;;;;;;;7384499;19;20519;-70
2022/08/12 13:30:29;;;;;;;0.60;0.60;;;;;;;;;;7387695;19;20148;-71
2022/08/12 13:32:57;;;;;;;0.68;0.68;;;;;;;;;;7386057;19;20148;-71
2022/08/12 13:35:24;;;;;;;0.60;0.60;;;;;;;;;;7386413;19;20136;-71
2022/08/12 13:37:52;;;;;;;0.60;0.60;;;;;;;;;;7390210;19;20607;-70
2022/08/12 13:40:19;;;;;;;0.50;0.50;;;;;;;;;;7387664;19;20127;-70
2022/08/12 13:42:46;;;;;;;0.60;0.60;;;;;;;;;;7387208;19;20196;-70
2022/08/12 13:45:12;;;;;;;0.90;0.90;;;;;;;;;;7388283;19;20147;-70
2022/08/12 13:47:54;;;;;;;0.85;0.85;;;;;;;;;;7390012;19;20113;-70
2022/08/12 13:50:42;;;;;;;1.50;1.40;;;;;;;;;;7388987;19;20485;-70
2022/08/12 13:53:08;;;;;;;0.50;0.50;;;;;;;;;;7386692;19;20171;-71
2022/08/12 13:55:34;;;;;;;0.60;0.60;;;;;;;;;;7388087;19;20124;-70
2022/08/12 13:58:00;;;;;;;0.50;0.50;;;;;;;;;;7387363;19;20131;-70
2022/08/12 14:00:25;;;;;;;2.03;0.55;;;;;;;;;;7379943;19;21207;-69
2022/08/12 14:02:51;;;;;;;0.60;0.60;;;;;;;;;;7384939;19;20176;-70
2022/08/12 14:05:18;;;;;;;0.60;0.60;;;;;;;;;;7378583;19;20436;-71
2022/08/12 14:08:05;;;;;;;0.50;0.50;;;;;;;;;;7383096;19;20136;-71
2022/08/12 14:10:35;;;;;;;0.50;0.50;;;;;;;;;;7387266;19;20124;-71
2022/08/12 14:13:22;;;;;;;0.82;0.70;;;;;;;;;;7373266;19;20686;-71
2022/08/12 14:15:51;;;;;;;0.45;0.45;;;;;;;;;;7374953;19;20117;-71
2022/08/12 14:18:26;;;;;;;0.50;0.50;;;;;;;;;;7379306;19;20207;-71
2022/08/12 14:20:57;;;;;;;0.50;0.50;;;;;;;;;;7373352;19;20162;-71
2022/08/12 14:23:24;;;;;;;0.70;0.70;;;;;;;;;;7381278;19;20157;-71
2022/08/12 14:25:50;;;;;;;0.70;0.70;;;;;;;;;;7383237;19;20440;-73
2022/08/12 14:28:16;;;;;;;0.43;0.43;;;;;;;;;;7380266;19;20157;-71
2022/08/12 14:30:52;;;;;;;0.43;0.43;;;;;;;;;;7379908;19;20117;-71
2022/08/12 14:33:21;;;;;;;0.40;0.40;;;;;;;;;;7376635;19;20160;-71
2022/08/12 14:35:48;;;;;;;0.40;0.40;;;;;;;;;;7378630;19;20145;-72
2022/08/12 14:38:19;;;;;;;0.40;0.40;;;;;;;;;;7381236;19;20543;-71
2022/08/12 14:40:45;;;;;;;0.40;0.40;;;;;;;;;;7392144;19;20161;-71
2022/08/12 14:43:12;;;;;;;0.50;0.50;;;;;;;;;;7392454;19;20168;-71
2022/08/12 14:45:38;;;;;;;0.40;0.40;;;;;;;;;;7395427;19;20579;-71
2022/08/12 14:48:03;;;;;;;0.57;0.57;;;;;;;;;;7394003;19;20132;-71
2022/08/12 14:50:29;;;;;;;0.60;0.60;;;;;;;;;;7395450;19;20633;-70
2022/08/12 14:52:54;;;;;;;0.40;0.40;;;;;;;;;;7392920;19;20212;-70
2022/08/12 14:55:19;;;;;;;0.75;0.75;;;;;;;;;;7391656;19;20117;-75
2022/08/12 14:57:55;;;;;;;0.70;0.70;;;;;;;;;;7395995;19;20140;-71
2022/08/12 15:03:09;;;;;;;0.63;0.63;;;;;;;;;;7391077;19;20185;-71
2022/08/12 15:05:38;;;;;;;0.40;0.40;;;;;;;;;;7391618;19;20458;-71
2022/08/12 15:08:13;;;;;;;0.40;0.40;;;;;;;;;;7394207;19;20157;-71
2022/08/12 15:10:42;;;;;;;0.40;0.40;;;;;;;;;;7392787;19;20618;-72
2022/08/12 15:13:09;;;;;;;0.63;0.60;;;;;;;;;;7392283;19;20157;-70
2022/08/12 15:15:40;;;;;;;0.40;0.40;;;;;;;;;;7392156;19;20410;-72
2022/08/12 15:18:05;;;;;;;0.40;0.40;;;;;;;;;;7392159;19;20443;-71
2022/08/12 15:20:31;;;;;;;0.30;0.30;;;;;;;;;;7390504;19;20138;-71
2022/08/12 15:22:58;;;;;;;0.30;0.30;;;;;;;;;;7392378;19;20780;-71
2022/08/12 15:25:27;;;;;;;0.60;0.60;;;;;;;;;;7392819;19;20558;-70
2022/08/12 15:27:53;;;;;;;0.40;0.40;;;;;;;;;;7391844;19;20612;-71
2022/08/12 15:30:21;;;;;;;0.40;0.40;;;;;;;;;;7393386;19;20134;-71
2022/08/12 15:32:46;;;;;;;0.30;0.30;;;;;;;;;;7390739;19;20161;-71
2022/08/12 15:35:13;;;;;;;0.30;0.30;;;;;;;;;;7392505;19;20128;-71
2022/08/12 15:37:39;;;;;;;0.40;0.40;;;;;;;;;;7392635;19;20750;-70
2022/08/12 15:40:06;;;;;;;0.30;0.30;;;;;;;;;;7390464;19;20151;-73
2022/08/12 15:42:33;;;;;;;0.40;0.40;;;;;;;;;;7392626;19;20240;-72
2022/08/12 15:44:58;;;;;;;0.40;0.40;;;;;;;;;;7391240;19;20518;-73
2022/08/12 15:47:24;;;;;;;0.38;0.38;;;;;;;;;;7391338;19;20121;-71
2022/08/12 15:49:50;;;;;;;1.50;0.98;;;;;;;;;;7391989;19;20196;-71
2022/08/12 15:52:23;;;;;;;0.40;0.40;;;;;;;;;;7390428;19;20467;-73
2022/08/12 15:54:50;;;;;;;0.60;0.60;;;;;;;;;;7392096;19;20216;-70
2022/08/12 15:57:15;;;;;;;0.40;0.40;;;;;;;;;;7391904;19;20137;-70
2022/08/12 15:59:42;;;;;;;0.57;0.57;;;;;;;;;;7391939;19;20145;-71
2022/08/12 16:02:07;;;;;;;0.32;0.32;;;;;;;;;;7392599;19;20156;-71
2022/08/12 16:04:33;;;;;;;0.30;0.30;;;;;;;;;;7392396;19;20646;-71
2022/08/12 16:06:58;;;;;;;0.50;0.50;;;;;;;;;;7388209;19;20128;-70
2022/08/12 16:09:25;;;;;;;0.65;0.65;;;;;;;;;;7392024;19;20129;-71
2022/08/12 16:11:50;;;;;;;0.40;0.40;;;;;;;;;;7389940;19;20148;-71
2022/08/12 16:14:16;;;;;;;0.40;0.40;;;;;;;;;;7386343;19;20171;-72
2022/08/12 16:16:41;;;;;;;0.45;0.45;;;;;;;;;;7388136;19;20661;-71
2022/08/12 16:19:06;;;;;;;0.30;0.30;;;;;;;;;;7390550;19;20136;-71
2022/08/12 16:21:32;;;;;;;0.40;0.40;;;;;;;;;;7391682;19;20138;-70
2022/08/12 16:23:58;;;;;;;0.50;0.50;;;;;;;;;;7390462;19;20144;-70
2022/08/12 16:26:24;;;;;;;0.40;0.40;;;;;;;;;;7389553;19;20154;-70
2022/08/12 16:28:51;;;;;;;0.45;0.45;;;;;;;;;;7387629;19;20113;-70
2022/08/12 16:31:16;;;;;;;0.40;0.40;;;;;;;;;;7384961;19;20133;-70
2022/08/12 16:33:41;;;;;;;0.30;0.30;;;;;;;;;;7370710;19;20622;-71
2022/08/12 16:36:09;;;;;;;0.50;0.50;;;;;;;;;;7381842;19;20208;-73
2022/08/12 16:38:34;;;;;;;0.50;0.50;;;;;;;;;;7383191;19;20132;-70
2022/08/12 16:41:00;;;;;;;0.30;0.30;;;;;;;;;;7380359;19;20627;-70
2022/08/12 16:43:26;;;;;;;0.30;0.30;;;;;;;;;;7378036;19;20897;-71
2022/08/12 16:45:58;;;;;;;0.35;0.35;;;;;;;;;;7379808;19;20153;-71
2022/08/12 16:48:25;;;;;;;0.40;0.40;;;;;;;;;;7364480;19;20125;-71
2022/08/12 16:50:52;;;;;;;0.40;0.40;;;;;;;;;;7380370;19;20165;-71
